Time;durP1;ratioP1;P1;durP2;ratioP2;P2;SDS_P1;SDS_P2;PMS_P1;PMS_P2;Temp;Humidity;BMP_temperature;BMP_pressure;BME280_temperature;BME280_humidity;BME280_pressure;Samples;Min_cycle;Max_cycle;Signal;HPM_P1;HPM_P2
2022/08/22 00:02:33;;;;;;;4.22;2.72;;;;;;;17.89;100.00;100119.31;2729657;85;21120;-87
2022/08/22 00:06:56;;;;;;;9.28;2.35;;;;;;;17.82;100.00;100116.50;2663213;86;21816;-86
2022/08/22 00:11:24;;;;;;;7.08;3.25;;;;;;;17.88;100.00;100116.79;2720646;83;21066;-87
2022/08/22 00:15:39;;;;;;;3.00;2.35;;;;;;;17.76;100.00;100105.60;2647883;88;21579;-86
2022/08/22 00:19:52;;;;;;;4.17;2.12;;;;;;;17.77;100.00;100114.86;2644905;90;21090;-86
2022/08/22 00:24:23;;;;;;;9.23;3.35;;;;;;;17.77;100.00;100119.38;2634250;90;21055;-86
2022/08/22 00:28:44;;;;;;;8.38;2.80;;;;;;;17.78;100.00;100119.22;2637891;88;21210;-86
2022/08/22 00:32:50;;;;;;;4.25;2.70;;;;;;;17.78;100.00;100116.53;2632328;88;21046;-85
2022/08/22 00:37:15;;;;;;;4.65;3.05;;;;;;;17.64;100.00;100121.31;2632599;88;21088;-86
2022/08/22 00:41:42;;;;;;;4.28;3.55;;;;;;;17.68;100.00;100126.66;2638681;88;21008;-86
2022/08/22 00:46:03;;;;;;;7.05;3.35;;;;;;;17.70;100.00;100126.83;2641347;89;21108;-86
2022/08/22 00:50:38;;;;;;;5.22;2.47;;;;;;;17.64;100.00;100129.38;2689437;82;21049;-85
2022/08/22 00:55:01;;;;;;;3.25;2.72;;;;;;;17.51;100.00;100140.21;2871822;81;21505;-86
2022/08/22 00:59:13;;;;;;;6.10;3.37;;;;;;;17.49;100.00;100136.86;2854469;80;21089;-86
2022/08/22 01:03:47;;;;;;;5.62;2.33;;;;;;;17.40;100.00;100140.58;2765009;84;21086;-86
2022/08/22 01:08:03;;;;;;;3.30;2.30;;;;;;;17.33;100.00;100144.98;2723644;84;21094;-86
2022/08/22 01:12:47;;;;;;;4.35;2.47;;;;;;;17.36;100.00;100142.77;2768365;84;21074;-86
2022/08/22 01:17:00;;;;;;;4.80;2.55;;;;;;;17.35;100.00;100147.81;2676773;87;21090;-85
2022/08/22 01:21:36;;;;;;;8.58;2.67;;;;;;;17.27;100.00;100147.34;2701042;87;21078;-86
2022/08/22 01:26:00;;;;;;;;;;;;;;;17.24;100.00;100146.34;2683089;87;21066;-86
2022/08/22 01:30:31;;;;;;;5.70;4.08;;;;;;;17.24;100.00;100153.06;2673813;87;20124;-85
2022/08/22 01:35:17;;;;;;;4.85;2.92;;;;;;;17.19;100.00;100154.09;2742601;86;21668;-85
2022/08/22 01:39:33;;;;;;;;;;;;;;;17.11;100.00;100151.45;2728731;86;21526;-85
2022/08/22 01:44:08;;;;;;;6.40;3.47;;;;;;;17.07;100.00;100152.28;2744446;85;20189;-85
2022/08/22 01:48:34;;;;;;;4.05;3.25;;;;;;;17.08;100.00;100148.59;2751262;85;21031;-85
2022/08/22 01:52:48;;;;;;;5.60;3.07;;;;;;;17.07;100.00;100144.71;2836328;82;21063;-85
2022/08/22 01:56:50;;;;;;;3.77;2.77;;;;;;;17.13;100.00;100140.02;2824621;82;21090;-86
2022/08/22 02:01:12;;;;;;;7.28;3.35;;;;;;;17.13;100.00;100138.15;2818498;82;21036;-85
2022/08/22 02:05:32;;;;;;;4.83;3.40;;;;;;;17.11;100.00;100136.14;2801804;82;21030;-85
2022/08/22 02:10:20;;;;;;;4.72;3.77;;;;;;;17.13;100.00;100142.70;2767551;85;21089;-86
2022/08/22 02:14:36;;;;;;;6.22;3.47;;;;;;;17.15;100.00;100143.36;2771945;84;21101;-86
2022/08/22 02:19:01;;;;;;;10.82;3.83;;;;;;;17.15;100.00;100144.70;2758347;84;21046;-86
2022/08/22 02:23:55;;;;;;;4.10;3.40;;;;;;;17.15;100.00;100144.70;2764990;83;21058;-86
2022/08/22 02:28:13;;;;;;;4.55;3.40;;;;;;;17.11;100.00;100145.55;2742871;84;21082;-86
2022/08/22 02:32:46;;;;;;;6.75;2.77;;;;;;;17.16;100.00;100148.22;2742875;84;21114;-85
2022/08/22 02:36:56;;;;;;;11.57;3.77;;;;;;;17.09;100.00;100141.34;2725628;86;21102;-85
2022/08/22 02:41:27;;;;;;;4.97;3.05;;;;;;;17.23;100.00;100147.88;2743399;84;21066;-85
2022/08/22 02:46:12;;;;;;;4.40;3.42;;;;;;;17.13;100.00;100145.39;2742920;84;21058;-85
2022/08/22 02:50:57;;;;;;;4.60;3.40;;;;;;;17.21;100.00;100149.91;2769617;85;21557;-85
2022/08/22 02:55:13;;;;;;;4.78;2.10;;;;;;;17.21;100.00;100153.41;2767926;85;21047;-86
2022/08/22 02:59:40;;;;;;;4.92;2.67;;;;;;;17.24;100.00;100158.44;2760378;85;21062;-86
2022/08/22 03:03:45;;;;;;;3.20;2.90;;;;;;;17.28;100.00;100158.94;2717876;84;21603;-86
2022/08/22 03:08:11;;;;;;;5.65;2.83;;;;;;;17.41;100.00;100165.11;2744394;86;21099;-86
2022/08/22 03:12:30;;;;;;;4.67;2.52;;;;;;;17.44;100.00;100164.76;2727246;85;21655;-85
2022/08/22 03:16:37;;;;;;;3.77;2.98;;;;;;;17.50;100.00;100167.27;2752302;85;21333;-86
2022/08/22 03:20:47;;;;;;;3.02;2.15;;;;;;;17.51;100.00;100171.14;2757129;85;20989;-87
2022/08/22 03:25:12;;;;;;;4.37;1.70;;;;;;;17.53;100.00;100166.42;2597851;90;21571;-86
2022/08/22 03:29:33;;;;;;;3.85;2.40;;;;;;;17.55;100.00;100171.11;2602097;91;21770;-88
2022/08/22 03:33:35;;;;;;;2.95;2.30;;;;;;;17.51;100.00;100170.28;2589183;90;21154;-87
2022/08/22 03:37:42;;;;;;;3.72;2.77;;;;;;;17.47;100.00;100171.12;2608321;88;21096;-87
2022/08/22 03:41:49;;;;;;;3.00;2.47;;;;;;;17.47;100.00;100169.78;2608495;89;21111;-87
2022/08/22 03:46:07;;;;;;;5.17;2.77;;;;;;;17.47;100.00;100177.85;2615954;88;21663;-88
2022/08/22 03:50:52;;;;;;;3.17;2.15;;;;;;;17.39;100.00;100185.95;2631337;89;21054;-87
2022/08/22 03:55:18;;;;;;;3.27;1.80;;;;;;;17.34;100.00;100185.13;2693797;86;21082;-88
2022/08/22 04:00:01;;;;;;;2.25;1.90;;;;;;;17.33;100.00;100190.69;2715126;86;21033;-88
2022/08/22 04:04:42;;;;;;;2.62;2.12;;;;;;;17.28;100.00;100206.80;2795293;82;21701;-87
2022/08/22 04:09:29;;;;;;;2.52;1.85;;;;;;;17.18;100.00;100203.98;2832024;82;21047;-88
2022/08/22 04:13:59;;;;;;;3.10;1.90;;;;;;;17.12;100.00;100208.21;2671508;88;21054;-87
2022/08/22 04:18:27;;;;;;;2.15;1.50;;;;;;;17.11;100.00;100211.91;2680949;86;21658;-88
2022/08/22 04:22:49;;;;;;;4.65;2.22;;;;;;;16.96;100.00;100211.22;2694560;86;21083;-89
2022/08/22 04:27:14;;;;;;;3.40;1.20;;;;;;;16.87;100.00;100214.08;2695104;86;21645;-88
2022/08/22 04:31:23;;;;;;;1.67;1.55;;;;;;;16.82;100.00;100215.92;2692088;86;21042;-87
2022/08/22 04:35:35;;;;;;;2.90;2.22;;;;;;;16.80;100.00;100213.42;2666092;86;21932;-88
2022/08/22 04:39:51;;;;;;;4.40;1.80;;;;;;;16.78;100.00;100218.62;2676162;86;21001;-88
2022/08/22 04:43:57;;;;;;;8.00;1.27;;;;;;;16.68;100.00;100219.61;2696780;88;21375;-88
2022/08/22 04:48:07;;;;;;;3.42;1.60;;;;;;;16.69;100.00;100223.97;2803620;82;21869;-89
2022/08/22 04:52:25;;;;;;;1.82;1.35;;;;;;;16.66;100.00;100224.83;2838803;82;21026;-89
2022/08/22 04:56:44;;;;;;;1.82;1.10;;;;;;;16.65;100.00;100228.52;2831060;82;21003;-89
2022/08/22 05:01:00;;;;;;;4.60;1.10;;;;;;;16.65;100.00;100232.03;2847612;82;21007;-89
2022/08/22 05:05:07;;;;;;;2.35;1.30;;;;;;;16.60;100.00;100229.02;2819324;83;21565;-90
2022/08/22 05:09:13;;;;;;;2.25;1.47;;;;;;;16.51;100.00;100230.86;2834884;81;21597;-89
2022/08/22 05:13:28;;;;;;;2.00;0.82;;;;;;;16.41;100.00;100224.81;2833288;82;21444;-88
2022/08/22 05:17:31;;;;;;;1.77;1.05;;;;;;;16.27;100.00;100225.79;2834426;83;21026;-88
2022/08/22 05:21:37;;;;;;;6.80;1.62;;;;;;;16.17;100.00;100226.42;2787633;83;21546;-88
2022/08/22 05:25:40;;;;;;;;;;;;;;;16.12;100.00;100226.94;2817973;82;21031;-88
2022/08/22 05:29:46;;;;;;;3.17;1.25;;;;;;;16.03;100.00;100221.20;2815539;83;20159;-88
2022/08/22 05:33:52;;;;;;;1.35;1.25;;;;;;;15.98;100.00;100230.24;2834779;83;21067;-86
2022/08/22 05:37:55;;;;;;;1.52;1.17;;;;;;;15.97;100.00;100233.92;2842818;82;21603;-88
2022/08/22 05:42:00;;;;;;;3.77;2.08;;;;;;;15.98;100.00;100227.56;2821129;82;21046;-88
2022/08/22 05:46:08;;;;;;;2.60;2.00;;;;;;;15.99;100.00;100238.62;2810145;82;21030;-87
2022/08/22 05:50:15;;;;;;;2.10;1.20;;;;;;;16.01;100.00;100236.62;2809761;83;21048;-87
2022/08/22 05:54:22;;;;;;;1.95;1.70;;;;;;;16.07;100.00;100233.27;2845487;82;21019;-88
2022/08/22 05:58:51;;;;;;;6.08;1.32;;;;;;;16.12;100.00;100228.77;2819622;82;21030;-88
2022/08/22 06:03:04;;;;;;;1.12;0.98;;;;;;;16.13;100.00;100229.95;2816323;82;21076;-86
2022/08/22 06:07:23;;;;;;;1.47;1.37;;;;;;;16.16;100.00;100233.31;2811409;83;21093;-88
2022/08/22 06:11:33;;;;;;;2.22;1.80;;;;;;;16.16;100.00;100235.48;2829320;81;21285;-88
2022/08/22 06:16:04;;;;;;;3.47;1.60;;;;;;;16.20;100.00;100227.43;2854332;81;21529;-89
2022/08/22 06:20:08;;;;;;;3.52;1.42;;;;;;;16.13;100.00;100229.11;2836530;80;21334;-88
2022/08/22 06:24:21;;;;;;;2.60;1.57;;;;;;;16.16;100.00;100221.23;2827517;83;21060;-86
2022/08/22 06:28:31;;;;;;;6.15;1.65;;;;;;;16.22;100.00;100220.58;2835681;83;21008;-88
2022/08/22 06:32:40;;;;;;;6.95;2.12;;;;;;;16.17;100.00;100216.20;2888913;82;21035;-88
2022/08/22 06:36:46;;;;;;;3.40;1.50;;;;;;;16.19;100.00;100211.52;2816757;83;21076;-87
2022/08/22 06:40:52;;;;;;;3.98;1.22;;;;;;;16.19;100.00;100213.68;2839956;81;21031;-88
2022/08/22 06:44:57;;;;;;;;;;;;;;;16.22;100.00;100217.41;2838222;80;21109;-88
2022/08/22 06:49:00;;;;;;;2.20;1.57;;;;;;;16.19;100.00;100219.56;2831375;82;20126;-88
2022/08/22 06:53:13;;;;;;;1.62;1.32;;;;;;;16.24;100.00;100217.22;2833440;83;21041;-89
2022/08/22 06:57:38;;;;;;;1.12;1.02;;;;;;;16.30;100.00;100225.94;2839951;81;21532;-89
2022/08/22 07:02:02;;;;;;;4.33;2.00;;;;;;;16.26;100.00;100225.94;2826486;83;21070;-89
2022/08/22 07:06:04;;;;;;;4.05;1.65;;;;;;;16.31;100.00;100230.34;2794419;83;21713;-88
2022/08/22 07:10:06;;;;;;;5.00;1.30;;;;;;;16.28;100.00;100226.61;2768183;84;21602;-87
2022/08/22 07:14:12;;;;;;;5.47;2.40;;;;;;;16.27;100.00;100220.91;2778090;83;21030;-89
2022/08/22 07:18:17;;;;;;;4.17;1.65;;;;;;;16.33;100.00;100218.08;2751126;84;21877;-88
2022/08/22 07:22:29;;;;;;;1.67;1.57;;;;;;;16.24;100.00;100222.09;2829473;83;21027;-88
2022/08/22 07:26:42;;;;;;;2.75;1.80;;;;;;;16.28;100.00;100215.39;2841183;81;21098;-88
2022/08/22 07:31:01;;;;;;;3.37;2.92;;;;;;;16.38;100.00;100211.70;2848967;81;21074;-89
2022/08/22 07:35:14;;;;;;;3.65;2.85;;;;;;;16.44;100.00;100213.73;2839492;81;21058;-87
2022/08/22 07:39:39;;;;;;;3.40;2.35;;;;;;;16.44;100.00;100215.57;2828768;81;21068;-88
2022/08/22 07:43:51;;;;;;;2.22;1.82;;;;;;;16.43;100.00;100220.12;2850303;81;21022;-87
2022/08/22 07:48:01;;;;;;;5.20;2.33;;;;;;;16.53;100.00;100223.47;2834537;81;21839;-88
2022/08/22 07:52:10;;;;;;;2.62;2.42;;;;;;;16.64;100.00;100227.67;2832601;81;21149;-88
2022/08/22 07:56:18;;;;;;;5.25;3.08;;;;;;;16.61;100.00;100223.98;2815066;82;21018;-89
2022/08/22 08:00:22;;;;;;;4.60;2.22;;;;;;;16.65;100.00;100231.20;2827287;81;21467;-89
2022/08/22 08:04:30;;;;;;;3.02;2.15;;;;;;;16.74;100.00;100230.70;2827161;82;21039;-88
2022/08/22 08:08:42;;;;;;;3.17;2.42;;;;;;;16.77;100.00;100232.53;2853273;80;21013;-88
2022/08/22 08:12:48;;;;;;;2.33;1.57;;;;;;;16.81;100.00;100229.88;2872601;80;20975;-89
2022/08/22 08:17:09;;;;;;;4.78;3.33;;;;;;;16.84;100.00;100230.87;2899980;80;21001;-89
2022/08/22 08:21:16;;;;;;;3.08;2.37;;;;;;;16.81;100.00;100230.36;2859000;79;21041;-89
2022/08/22 08:25:22;;;;;;;3.40;2.37;;;;;;;16.70;100.00;100224.34;2861638;80;21059;-87
2022/08/22 08:29:23;;;;;;;4.53;2.52;;;;;;;16.72;100.00;100227.36;2884390;79;21621;-88
2022/08/22 08:33:28;;;;;;;5.60;2.35;;;;;;;16.66;100.00;100222.97;2916237;79;21018;-88
2022/08/22 08:37:38;;;;;;;4.12;2.47;;;;;;;16.61;100.00;100218.61;2908142;80;21003;-86
2022/08/22 08:42:27;;;;;;;4.50;2.27;;;;;;;16.67;100.00;100217.93;2902445;80;21125;-88
2022/08/22 08:47:02;;;;;;;3.70;2.08;;;;;;;16.69;100.00;100209.20;2914026;80;21509;-88
2022/08/22 08:51:47;;;;;;;4.62;2.17;;;;;;;16.52;100.00;100200.83;2893367;79;21125;-88
2022/08/22 08:55:59;;;;;;;5.65;1.98;;;;;;;16.69;100.00;100202.48;2876125;80;21487;-88
2022/08/22 09:00:33;;;;;;;7.70;2.47;;;;;;;16.79;100.00;100206.86;2887105;79;21008;-87
2022/08/22 09:05:03;;;;;;;5.12;3.42;;;;;;;16.73;100.00;100200.31;2889450;80;21118;-88
2022/08/22 09:09:28;;;;;;;4.37;2.12;;;;;;;16.80;100.00;100204.52;2705509;86;21146;-89
2022/08/22 09:14:00;;;;;;;5.53;1.98;;;;;;;16.84;100.00;100209.39;2708876;86;21405;-87
2022/08/22 09:18:10;;;;;;;2.37;2.17;;;;;;;16.91;100.00;100208.20;2705802;86;21150;-89
2022/08/22 09:22:54;;;;;;;3.35;2.83;;;;;;;16.96;100.00;100202.30;2700269;86;21070;-89
2022/08/22 09:27:07;;;;;;;2.72;2.10;;;;;;;17.00;100.00;100199.67;2704972;86;21074;-88
2022/08/22 09:31:32;;;;;;;5.05;2.27;;;;;;;17.06;100.00;100200.81;2703451;86;21149;-89
2022/08/22 09:36:03;;;;;;;4.25;3.10;;;;;;;17.14;100.00;100194.09;2689749;88;21118;-88
2022/08/22 09:40:23;;;;;;;1.82;1.57;;;;;;;17.22;100.00;100191.38;2709035;85;21142;-89
2022/08/22 09:44:48;;;;;;;2.85;2.15;;;;;;;17.27;100.00;100194.90;2730159;82;21071;-88
2022/08/22 09:49:16;;;;;;;2.67;2.47;;;;;;;17.36;100.00;100192.50;2888711;80;21039;-89
2022/08/22 09:53:34;;;;;;;3.37;1.70;;;;;;;17.45;100.00;100196.01;2931212;79;21042;-89
2022/08/22 09:57:52;;;;;;;2.08;1.62;;;;;;;17.47;100.00;100198.02;2832953;80;21039;-89
2022/08/22 10:02:05;;;;;;;2.22;2.02;;;;;;;17.63;100.00;100194.94;2783435;84;21062;-89
2022/08/22 10:06:20;;;;;;;2.70;2.37;;;;;;;17.72;100.00;100198.44;2831375;81;21050;-89
2022/08/22 10:10:55;;;;;;;4.30;2.62;;;;;;;17.81;100.00;100197.40;2858303;81;21034;-89
2022/08/22 10:15:24;;;;;;;2.25;2.05;;;;;;;17.76;100.00;100185.81;2773059;84;21030;-89
2022/08/22 10:19:42;;;;;;;1.90;1.80;;;;;;;17.87;100.00;100188.61;2713028;86;21038;-87
2022/08/22 10:23:49;;;;;;;2.22;2.02;;;;;;;17.94;100.00;100186.06;2728891;86;21587;-88
2022/08/22 10:28:28;;;;;;;2.87;2.60;;;;;;;18.05;100.00;100186.20;2780340;84;21031;-88
2022/08/22 10:32:53;;;;;;;4.47;3.22;;;;;;;18.11;100.00;100191.71;2764821;86;21003;-90
2022/08/22 10:37:02;;;;;;;3.40;2.10;;;;;;;18.29;100.00;100200.51;2715732;86;21079;-88
2022/08/22 10:41:14;;;;;;;2.33;2.12;;;;;;;18.31;100.00;100193.94;2739535;84;21727;-88
2022/08/22 10:45:30;;;;;;;1.70;1.60;;;;;;;18.43;100.00;100197.55;2750257;85;21103;-88
2022/08/22 10:49:42;;;;;;;1.62;1.20;;;;;;;18.44;100.00;100200.56;2638968;87;21405;-88
2022/08/22 10:54:20;;;;;;;1.85;1.60;;;;;;;18.48;100.00;100197.34;2740251;86;21066;-88
2022/08/22 10:58:26;;;;;;;2.05;1.85;;;;;;;18.55;100.00;100196.11;2817977;83;20999;-89
2022/08/22 11:02:41;;;;;;;1.22;1.12;;;;;;;18.53;100.00;100199.50;2843186;83;21111;-88
2022/08/22 11:06:50;;;;;;;2.27;1.20;;;;;;;18.48;100.00;100202.73;2772329;83;21149;-88
2022/08/22 11:11:15;;;;;;;2.37;0.90;;;;;;;18.41;100.00;100201.26;2748757;84;21081;-88
2022/08/22 11:15:56;;;;;;;1.17;1.07;;;;;;;18.33;100.00;100200.48;2768076;84;21102;-87
2022/08/22 11:20:25;;;;;;;2.42;1.65;;;;;;;18.35;100.00;100196.59;2754663;84;21048;-87
2022/08/22 11:24:44;;;;;;;1.82;1.22;;;;;;;18.31;100.00;100195.78;2767108;81;21011;-87
2022/08/22 11:29:37;;;;;;;1.82;1.32;;;;;;;18.34;100.00;100201.66;2852194;81;21609;-87
2022/08/22 11:33:52;;;;;;;1.65;1.42;;;;;;;18.39;100.00;100196.56;2825156;83;21029;-87
2022/08/22 11:38:02;;;;;;;1.65;1.22;;;;;;;18.36;100.00;100191.54;2846819;81;21082;-87
2022/08/22 11:42:12;;;;;;;1.77;1.12;;;;;;;18.47;100.00;100194.81;2831821;81;21212;-87
2022/08/22 11:46:22;;;;;;;1.52;1.42;;;;;;;18.52;100.00;100195.13;2852601;81;21005;-88
2022/08/22 11:50:37;;;;;;;1.92;1.67;;;;;;;18.56;100.00;100196.44;2832662;81;21106;-88
2022/08/22 11:55:15;;;;;;;2.42;1.95;;;;;;;18.57;100.00;100199.47;2837006;81;21051;-87
2022/08/22 11:59:31;;;;;;;2.12;1.35;;;;;;;18.58;100.00;100203.01;2804145;83;21056;-88
2022/08/22 12:03:38;;;;;;;3.55;1.70;;;;;;;18.56;100.00;100201.30;2828986;82;21535;-87
2022/08/22 12:07:45;;;;;;;21.17;2.25;;;;;;;18.61;100.00;100199.42;2772678;82;21062;-88
2022/08/22 12:12:14;;;;;;;5.78;2.12;;;;;;;18.52;100.00;100194.61;2841245;81;21048;-88
2022/08/22 12:16:44;;;;;;;2.02;1.50;;;;;;;18.46;100.00;100195.34;2857050;81;21005;-87
2022/08/22 12:21:02;;;;;;;3.72;1.55;;;;;;;18.52;100.00;100197.83;2833808;81;20991;-87
2022/08/22 12:25:21;;;;;;;2.52;2.02;;;;;;;18.58;100.00;100198.97;2834276;81;21002;-87
2022/08/22 12:29:31;;;;;;;2.83;1.65;;;;;;;18.58;100.00;100196.27;2840582;81;21034;-88
2022/08/22 12:34:14;;;;;;;3.33;1.62;;;;;;;18.62;100.00;100199.75;2840378;81;21627;-88
2022/08/22 12:38:37;;;;;;;3.20;1.80;;;;;;;18.65;100.00;100195.34;2848062;81;21053;-88
2022/08/22 12:43:06;;;;;;;3.58;2.10;;;;;;;18.71;100.00;100196.48;2838502;81;21011;-88
2022/08/22 12:47:31;;;;;;;3.45;1.77;;;;;;;18.70;100.00;100192.97;2832894;81;21046;-88
2022/08/22 12:51:59;;;;;;;5.22;2.62;;;;;;;18.68;100.00;100188.77;2856201;81;21671;-89
2022/08/22 12:56:15;;;;;;;4.87;1.77;;;;;;;18.64;100.00;100186.11;2845286;81;21609;-87
2022/08/22 13:00:33;;;;;;;4.20;2.35;;;;;;;18.66;100.00;100191.62;2856320;81;21063;-88
2022/08/22 13:04:39;;;;;;;2.62;2.05;;;;;;;18.65;100.00;100191.30;2844654;81;21027;-87
2022/08/22 13:08:42;;;;;;;;;;;;;;;18.65;100.00;100184.56;2855286;82;21311;-84
2022/08/22 13:12:49;;;;;;;4.55;2.50;;;;;;;18.74;100.00;100186.68;2808903;80;20124;-87
2022/08/22 13:16:54;;;;;;;3.40;2.72;;;;;;;18.81;100.00;100188.14;2886763;80;21082;-88
2022/08/22 13:21:00;;;;;;;2.98;2.15;;;;;;;18.74;100.00;100185.33;2902338;80;21070;-86
2022/08/22 13:25:23;;;;;;;2.30;2.10;;;;;;;18.82;100.00;100185.28;2870011;80;21049;-86
2022/08/22 13:29:30;;;;;;;3.72;2.30;;;;;;;18.82;100.00;100188.47;2822771;82;21086;-90
2022/08/22 13:33:37;;;;;;;1.50;1.30;;;;;;;18.84;100.00;100187.77;2893067;80;21046;-89
2022/08/22 13:37:45;;;;;;;2.12;1.90;;;;;;;18.80;100.00;100179.23;2796623;82;21189;-88
2022/08/22 13:41:52;;;;;;;3.90;2.25;;;;;;;18.78;100.00;100186.67;2881108;79;21059;-91
2022/08/22 13:46:01;;;;;;;2.95;2.52;;;;;;;18.76;100.00;100181.12;2878186;80;21034;-90
2022/08/22 13:50:19;;;;;;;8.70;2.87;;;;;;;18.74;100.00;100177.25;2830978;82;21097;-86
2022/08/22 13:54:54;;;;;;;2.90;2.60;;;;;;;18.67;100.00;100177.17;2864877;81;21006;-89
2022/08/22 13:58:59;;;;;;;5.87;3.03;;;;;;;18.63;100.00;100180.40;2885478;80;21103;-90
2022/08/22 14:03:15;;;;;;;5.70;3.40;;;;;;;18.60;100.00;100175.38;2896486;80;21502;-91
2022/08/22 14:07:30;;;;;;;5.05;3.92;;;;;;;18.62;100.00;100178.20;2881992;80;20997;-87
2022/08/22 14:11:48;;;;;;;5.05;4.53;;;;;;;18.65;100.00;100171.09;2906397;80;21045;-89
2022/08/22 14:16:00;;;;;;;5.42;4.60;;;;;;;18.69;100.00;100176.47;2909658;80;21001;-90
2022/08/22 14:20:27;;;;;;;5.55;2.98;;;;;;;18.73;100.00;100178.80;2908913;80;21030;-92
2022/08/22 14:24:47;;;;;;;3.40;2.58;;;;;;;18.78;100.00;100173.20;2932697;80;21522;-91
2022/08/22 14:28:49;;;;;;;4.60;3.95;;;;;;;18.73;100.00;100173.41;2779485;82;21090;-89
2022/08/22 14:33:23;;;;;;;4.92;3.47;;;;;;;18.68;100.00;100166.72;2789868;84;21044;-91
2022/08/22 14:37:35;;;;;;;3.00;2.70;;;;;;;18.75;100.00;100172.19;2788382;84;21624;-88
2022/08/22 14:41:43;;;;;;;4.72;3.22;;;;;;;18.75;100.00;100170.84;2786045;84;21043;-91
2022/08/22 14:46:02;;;;;;;3.25;2.75;;;;;;;18.82;100.00;100170.95;2779016;84;21232;-89
2022/08/22 14:50:08;;;;;;;4.00;3.40;;;;;;;18.81;100.00;100162.55;2768663;84;21078;-88
2022/08/22 14:54:17;;;;;;;3.77;3.47;;;;;;;18.83;100.00;100164.55;2791365;84;21118;-90
2022/08/22 14:58:21;;;;;;;4.95;3.67;;;;;;;18.92;100.00;100168.84;2767768;84;21024;-90
2022/08/22 15:02:28;;;;;;;4.47;4.05;;;;;;;18.93;100.00;100165.13;2733274;86;21059;-88
2022/08/22 15:06:54;;;;;;;4.10;3.33;;;;;;;18.92;100.00;100163.45;2769624;83;21031;-86
2022/08/22 15:11:20;;;;;;;6.75;3.47;;;;;;;18.95;100.00;100160.39;2753650;85;21664;-92
2022/08/22 15:15:44;;;;;;;5.83;4.12;;;;;;;18.89;100.00;100159.78;2750176;85;21093;-91
2022/08/22 15:19:47;;;;;;;4.95;4.35;;;;;;;18.92;100.00;100164.80;2822455;83;21069;-88
2022/08/22 15:23:51;;;;;;;7.72;4.70;;;;;;;18.97;100.00;100161.04;2767263;85;21082;-87
2022/08/22 15:28:08;;;;;;;3.80;3.40;;;;;;;18.97;100.00;100158.34;2827893;83;21030;-89
2022/08/22 15:32:10;;;;;;;7.40;5.28;;;;;;;18.93;100.00;100158.39;2831952;83;21026;-91
2022/08/22 15:36:17;;;;;;;5.30;3.87;;;;;;;18.98;100.00;100168.14;2838671;82;21133;-89
2022/08/22 15:40:41;;;;;;;9.55;5.05;;;;;;;19.00;100.00;100165.77;2810594;83;21070;-91
2022/08/22 15:44:45;;;;;;;7.55;6.75;;;;;;;18.93;100.00;100163.78;2822890;82;21044;-84
2022/08/22 15:49:10;;;;;;;8.98;5.50;;;;;;;18.98;100.00;100160.05;2809959;83;21054;-91
2022/08/22 15:53:26;;;;;;;6.72;5.47;;;;;;;19.03;100.00;100153.26;2778740;84;29807;-91
2022/08/22 15:57:39;;;;;;;5.67;4.78;;;;;;;19.08;100.00;100153.56;2707818;87;21134;-89
2022/08/22 16:01:43;;;;;;;6.10;3.27;;;;;;;19.11;100.00;100153.19;2762648;85;21082;-88
2022/08/22 16:05:52;;;;;;;3.65;2.47;;;;;;;19.10;100.00;100156.91;2781937;85;21055;-88
2022/08/22 16:09:57;;;;;;;3.52;2.35;;;;;;;19.06;100.00;100153.73;2772945;84;21035;-88
2022/08/22 16:14:25;;;;;;;2.83;2.05;;;;;;;19.04;100.00;100158.98;2779653;85;21046;-87
2022/08/22 16:18:38;;;;;;;3.40;2.45;;;;;;;19.07;100.00;100157.28;2763153;85;21067;-86
2022/08/22 16:23:00;;;;;;;6.28;3.10;;;;;;;19.05;100.00;100152.06;2792212;83;21039;-88
2022/08/22 16:27:22;;;;;;;2.60;2.25;;;;;;;19.11;100.00;100158.05;2785272;83;21058;-88
2022/08/22 16:31:46;;;;;;;3.30;2.85;;;;;;;19.18;100.00;100158.68;2882088;80;21319;-88
2022/08/22 16:36:16;;;;;;;2.37;2.15;;;;;;;19.19;100.00;100160.36;2861640;80;20990;-88
2022/08/22 16:40:22;;;;;;;3.83;3.25;;;;;;;19.11;100.00;100168.84;2890790;80;21037;-87
2022/08/22 16:44:44;;;;;;;3.65;3.35;;;;;;;19.20;100.00;100168.77;2880602;80;20971;-88
2022/08/22 16:48:45;;;;;;;4.70;3.58;;;;;;;19.20;100.00;100161.50;2888974;80;21058;-86
2022/08/22 16:53:19;;;;;;;9.88;4.33;;;;;;;19.20;100.00;100166.07;2872140;80;21011;-87
2022/08/22 16:57:45;;;;;;;6.25;5.12;;;;;;;19.12;100.00;100165.64;2685494;87;21030;-88
2022/08/22 17:02:18;;;;;;;7.12;5.05;;;;;;;19.07;100.00;100173.45;2631507;88;21002;-87
2022/08/22 17:06:36;;;;;;;5.85;4.67;;;;;;;19.05;100.00;100174.98;2598615;88;21114;-87
2022/08/22 17:10:52;;;;;;;5.60;4.42;;;;;;;19.05;100.00;100178.17;2696444;86;21069;-88
2022/08/22 17:14:59;;;;;;;7.22;5.28;;;;;;;18.95;100.00;100175.22;2688773;87;21037;-87
2022/08/22 17:19:23;;;;;;;7.65;4.33;;;;;;;18.89;100.00;100177.30;2686244;86;21155;-87
2022/08/22 17:23:33;;;;;;;6.45;5.87;;;;;;;18.90;100.00;100181.67;2698286;86;21044;-87
2022/08/22 17:27:42;;;;;;;7.80;5.20;;;;;;;18.88;100.00;100186.41;2683330;86;21623;-87
2022/08/22 17:31:54;;;;;;;10.18;5.90;;;;;;;18.81;100.00;100183.61;2668449;86;21084;-88
2022/08/22 17:36:22;;;;;;;11.53;4.90;;;;;;;18.86;100.00;100184.38;2712603;86;21095;-87
2022/08/22 17:40:34;;;;;;;9.05;5.30;;;;;;;18.73;100.00;100194.97;2850220;82;21015;-87
2022/08/22 17:45:13;;;;;;;8.48;6.15;;;;;;;18.80;100.00;100193.20;2718947;86;21442;-87
2022/08/22 17:49:44;;;;;;;12.00;6.97;;;;;;;18.78;100.00;100193.91;2708924;86;21202;-88
2022/08/22 17:53:51;;;;;;;7.45;4.78;;;;;;;18.69;100.00;100191.30;2718190;86;20992;-87
2022/08/22 17:58:03;;;;;;;12.75;5.33;;;;;;;18.69;100.00;100197.17;2710952;86;21005;-87
2022/08/22 18:02:21;;;;;;;8.03;6.12;;;;;;;18.67;100.00;100197.38;2706394;86;21060;-87
2022/08/22 18:06:30;;;;;;;7.30;5.15;;;;;;;18.66;100.00;100204.28;2709932;86;21069;-87
2022/08/22 18:11:02;;;;;;;8.60;5.37;;;;;;;18.64;100.00;100200.92;2706250;83;21053;-84
2022/08/22 18:15:39;;;;;;;12.50;5.83;;;;;;;18.69;100.00;100204.77;2697649;86;21102;-89
2022/08/22 18:20:07;;;;;;;13.98;7.17;;;;;;;18.64;100.00;100199.58;2739883;82;21026;-88
2022/08/22 18:24:14;;;;;;;11.22;6.45;;;;;;;18.67;100.00;100210.84;2816596;83;21105;-89
2022/08/22 18:28:36;;;;;;;8.50;6.30;;;;;;;18.62;100.00;100209.17;2794031;82;21180;-88
2022/08/22 18:32:58;;;;;;;8.23;6.50;;;;;;;18.63;100.00;100209.50;2830392;82;21074;-90
2022/08/22 18:37:32;;;;;;;12.47;6.60;;;;;;;18.63;100.00;100208.16;2816695;83;21031;-87
2022/08/22 18:41:41;;;;;;;12.73;7.35;;;;;;;18.64;100.00;100201.75;2825034;83;21065;-86
2022/08/22 18:45:48;;;;;;;9.63;7.22;;;;;;;18.58;100.00;100201.14;2832562;82;21079;-89
2022/08/22 18:49:54;;;;;;;11.22;6.97;;;;;;;18.60;100.00;100202.31;2797031;83;21082;-89
2022/08/22 18:54:07;;;;;;;9.55;7.22;;;;;;;18.63;100.00;100198.73;2816775;82;21082;-87
2022/08/22 18:58:40;;;;;;;9.53;7.67;;;;;;;18.64;100.00;100200.92;2830943;82;21058;-86
2022/08/22 19:02:56;;;;;;;9.40;6.25;;;;;;;18.59;100.00;100207.38;2719627;85;21065;-87
2022/08/22 19:07:13;;;;;;;;;;;;;;;18.63;100.00;100203.30;2740478;85;21099;-87
2022/08/22 19:11:29;;;;;;;;;;;;;;;18.63;100.00;100203.30;2758351;85;20132;-87
2022/08/22 19:16:02;;;;;;;7.47;6.00;;;;;;;18.65;100.00;100206.12;2765881;85;20151;-87
2022/08/22 19:25:15;;;;;;;9.98;7.78;;;;;;;18.70;100.00;100214.52;2754057;85;21008;-87
2022/08/22 19:29:23;;;;;;;10.65;7.58;;;;;;;18.73;100.00;100216.52;2756744;85;21091;-87
2022/08/22 19:33:30;;;;;;;7.72;5.70;;;;;;;18.69;100.00;100211.98;2784645;85;21099;-87
2022/08/22 19:37:53;;;;;;;17.65;6.25;;;;;;;18.70;100.00;100218.56;2787269;81;21019;-84
2022/08/22 19:41:56;;;;;;;7.25;5.97;;;;;;;18.72;100.00;100218.88;2906800;80;21024;-86
2022/08/22 19:46:03;;;;;;;8.08;6.62;;;;;;;18.65;100.00;100218.77;2823410;80;21554;-86
2022/08/22 19:50:20;;;;;;;9.60;6.22;;;;;;;18.63;100.00;100211.38;2899685;80;21016;-87
2022/08/22 19:54:23;;;;;;;8.23;5.85;;;;;;;18.58;100.00;100213.26;2857593;81;21031;-88